Decoded Metar for LYUZ (UZICE PONIKVE in SERBIA) (IATA:N/A) | Meteo·Mobile Aviation Weather
aviador You're here:

LYUZ Decoded Metar

UZICE PONIKVE in SERBIA
Report Time2019-09-17 00:30:00
UTC Time2019-09-17 00:36:31
Flight Rules vfr VFR
Wind290° at 03 kt
Visibility9999 m
Phenomena:N/A
Clouds:N/A
Expected CloudBase > 2,400 ft AGL from Temp-Dew spread
CeilingNone
Temp13°C (ISA +4)
Dew Point07°C (67% RH)
AAT11.2°C
QNH1019 hPa
Density Alt3,425 ft
Elevation3,012 ft
Report Wrong Elevation
Raw Report
METAR LYUZ 170030Z AUTO 29003KT 240V310 CAVOK 13/07 Q1019=

Extra information for LYUZ:More info

Metar Taf Metar & Taf Last 4 Metars F.Rules Stats Wind Profile Meteogram Temp Stats Airport Information Weather charts Add Link Nearby VenuesMetar ALERT Operation Metar Decoded Social comments